sensor_id;sensor_type;location;lat;lon;timestamp;P1;durP1;ratioP1;P2;durP2;ratioP2
19089;SDS011;9677;50.656;13.064;2022-12-07T00:01:45;11.60;;;10.60;;
19089;SDS011;9677;50.656;13.064;2022-12-07T00:04:16;11.10;;;10.20;;
19089;SDS011;9677;50.656;13.064;2022-12-07T00:06:46;11.07;;;10.10;;
19089;SDS011;9677;50.656;13.064;2022-12-07T00:09:19;11.53;;;10.53;;
19089;SDS011;9677;50.656;13.064;2022-12-07T00:11:49;11.33;;;10.43;;
19089;SDS011;9677;50.656;13.064;2022-12-07T00:14:18;12.30;;;11.27;;
19089;SDS011;9677;50.656;13.064;2022-12-07T00:16:48;13.73;;;12.43;;
19089;SDS011;9677;50.656;13.064;2022-12-07T00:19:19;13.67;;;12.47;;
19089;SDS011;9677;50.656;13.064;2022-12-07T00:21:48;13.60;;;12.40;;
19089;SDS011;9677;50.656;13.064;2022-12-07T00:24:17;12.60;;;11.50;;
19089;SDS011;9677;50.656;13.064;2022-12-07T00:26:45;13.17;;;11.93;;
19089;SDS011;9677;50.656;13.064;2022-12-07T00:29:15;12.10;;;11.00;;
19089;SDS011;9677;50.656;13.064;2022-12-07T00:31:45;12.80;;;11.63;;
19089;SDS011;9677;50.656;13.064;2022-12-07T00:34:15;12.67;;;11.47;;
19089;SDS011;9677;50.656;13.064;2022-12-07T00:36:47;12.70;;;11.50;;
19089;SDS011;9677;50.656;13.064;2022-12-07T00:39:17;13.30;;;12.10;;
19089;SDS011;9677;50.656;13.064;2022-12-07T00:41:46;12.17;;;11.07;;
19089;SDS011;9677;50.656;13.064;2022-12-07T00:44:14;12.40;;;11.20;;
19089;SDS011;9677;50.656;13.064;2022-12-07T00:46:43;11.90;;;10.90;;
19089;SDS011;9677;50.656;13.064;2022-12-07T00:49:12;12.77;;;11.60;;
19089;SDS011;9677;50.656;13.064;2022-12-07T00:51:41;12.10;;;11.00;;
19089;SDS011;9677;50.656;13.064;2022-12-07T00:54:11;12.67;;;11.57;;
19089;SDS011;9677;50.656;13.064;2022-12-07T00:56:40;12.93;;;11.83;;
19089;SDS011;9677;50.656;13.064;2022-12-07T00:59:10;13.23;;;12.03;;
19089;SDS011;9677;50.656;13.064;2022-12-07T01:01:41;13.13;;;12.03;;
19089;SDS011;9677;50.656;13.064;2022-12-07T01:04:10;13.13;;;11.97;;
19089;SDS011;9677;50.656;13.064;2022-12-07T01:06:38;12.27;;;11.17;;
19089;SDS011;9677;50.656;13.064;2022-12-07T01:09:07;12.80;;;11.70;;
19089;SDS011;9677;50.656;13.064;2022-12-07T01:11:37;12.60;;;11.50;;
19089;SDS011;9677;50.656;13.064;2022-12-07T01:14:06;12.87;;;11.67;;
19089;SDS011;9677;50.656;13.064;2022-12-07T01:16:36;12.10;;;11.00;;
19089;SDS011;9677;50.656;13.064;2022-12-07T01:19:06;12.47;;;11.47;;
19089;SDS011;9677;50.656;13.064;2022-12-07T01:21:35;12.50;;;11.40;;
19089;SDS011;9677;50.656;13.064;2022-12-07T01:24:06;13.13;;;12.03;;
19089;SDS011;9677;50.656;13.064;2022-12-07T01:26:39;13.50;;;12.30;;
19089;SDS011;9677;50.656;13.064;2022-12-07T01:29:08;12.23;;;11.13;;
19089;SDS011;9677;50.656;13.064;2022-12-07T01:31:37;13.10;;;11.90;;
19089;SDS011;9677;50.656;13.064;2022-12-07T01:34:05;13.40;;;12.20;;
19089;SDS011;9677;50.656;13.064;2022-12-07T01:36:35;14.20;;;12.73;;
19089;SDS011;9677;50.656;13.064;2022-12-07T01:39:05;13.23;;;12.03;;
19089;SDS011;9677;50.656;13.064;2022-12-07T01:41:38;12.70;;;11.60;;
19089;SDS011;9677;50.656;13.064;2022-12-07T01:44:20;13.77;;;12.57;;
19089;SDS011;9677;50.656;13.064;2022-12-07T01:46:51;13.23;;;12.10;;
19089;SDS011;9677;50.656;13.064;2022-12-07T01:49:25;13.33;;;12.13;;
19089;SDS011;9677;50.656;13.064;2022-12-07T01:52:00;12.83;;;11.73;;
19089;SDS011;9677;50.656;13.064;2022-12-07T01:54:44;12.93;;;11.73;;
19089;SDS011;9677;50.656;13.064;2022-12-07T01:57:17;12.50;;;11.40;;
19089;SDS011;9677;50.656;13.064;2022-12-07T01:59:47;12.90;;;11.80;;
19089;SDS011;9677;50.656;13.064;2022-12-07T02:02:19;12.73;;;11.63;;
19089;SDS011;9677;50.656;13.064;2022-12-07T02:04:52;12.10;;;11.00;;
19089;SDS011;9677;50.656;13.064;2022-12-07T02:07:23;12.53;;;11.43;;
19089;SDS011;9677;50.656;13.064;2022-12-07T02:09:54;12.73;;;11.63;;
19089;SDS011;9677;50.656;13.064;2022-12-07T02:12:24;12.50;;;11.40;;
19089;SDS011;9677;50.656;13.064;2022-12-07T02:14:53;13.23;;;12.03;;
19089;SDS011;9677;50.656;13.064;2022-12-07T02:17:24;12.27;;;11.20;;
19089;SDS011;9677;50.656;13.064;2022-12-07T02:20:07;13.17;;;12.00;;
19089;SDS011;9677;50.656;13.064;2022-12-07T02:23:04;13.73;;;12.43;;
19089;SDS011;9677;50.656;13.064;2022-12-07T02:26:19;11.80;;;10.80;;
19089;SDS011;9677;50.656;13.064;2022-12-07T02:29:19;12.67;;;11.57;;
19089;SDS011;9677;50.656;13.064;2022-12-07T02:31:53;12.57;;;11.50;;
19089;SDS011;9677;50.656;13.064;2022-12-07T02:34:34;12.40;;;11.30;;
19089;SDS011;9677;50.656;13.064;2022-12-07T02:37:14;12.40;;;11.30;;
19089;SDS011;9677;50.656;13.064;2022-12-07T02:39:53;12.83;;;11.63;;
19089;SDS011;9677;50.656;13.064;2022-12-07T02:42:27;12.23;;;11.23;;
19089;SDS011;9677;50.656;13.064;2022-12-07T02:45:03;12.93;;;11.83;;
19089;SDS011;9677;50.656;13.064;2022-12-07T02:47:33;12.50;;;11.40;;
19089;SDS011;9677;50.656;13.064;2022-12-07T02:50:04;12.80;;;11.70;;
19089;SDS011;9677;50.656;13.064;2022-12-07T02:52:35;12.07;;;10.97;;
19089;SDS011;9677;50.656;13.064;2022-12-07T02:55:04;12.47;;;11.47;;
19089;SDS011;9677;50.656;13.064;2022-12-07T02:57:40;12.83;;;11.77;;
19089;SDS011;9677;50.656;13.064;2022-12-07T03:00:21;12.03;;;11.03;;
19089;SDS011;9677;50.656;13.064;2022-12-07T03:02:52;11.90;;;10.90;;
19089;SDS011;9677;50.656;13.064;2022-12-07T03:05:28;12.00;;;11.00;;
19089;SDS011;9677;50.656;13.064;2022-12-07T03:08:15;11.93;;;10.93;;
19089;SDS011;9677;50.656;13.064;2022-12-07T03:10:53;12.03;;;11.03;;
19089;SDS011;9677;50.656;13.064;2022-12-07T03:13:30;11.77;;;10.77;;
19089;SDS011;9677;50.656;13.064;2022-12-07T03:16:10;11.77;;;10.77;;
19089;SDS011;9677;50.656;13.064;2022-12-07T03:18:44;11.90;;;10.90;;
19089;SDS011;9677;50.656;13.064;2022-12-07T03:21:18;12.40;;;11.40;;
19089;SDS011;9677;50.656;13.064;2022-12-07T03:23:51;12.00;;;11.00;;
19089;SDS011;9677;50.656;13.064;2022-12-07T03:26:24;12.33;;;11.33;;
19089;SDS011;9677;50.656;13.064;2022-12-07T03:29:00;12.00;;;11.00;;
19089;SDS011;9677;50.656;13.064;2022-12-07T03:31:36;11.67;;;10.67;;
19089;SDS011;9677;50.656;13.064;2022-12-07T03:34:10;11.83;;;10.83;;
19089;SDS011;9677;50.656;13.064;2022-12-07T03:36:43;11.83;;;10.83;;
19089;SDS011;9677;50.656;13.064;2022-12-07T03:39:20;11.73;;;10.77;;
19089;SDS011;9677;50.656;13.064;2022-12-07T03:41:54;12.37;;;11.37;;
19089;SDS011;9677;50.656;13.064;2022-12-07T03:44:24;12.33;;;11.33;;
19089;SDS011;9677;50.656;13.064;2022-12-07T03:46:57;12.73;;;11.63;;
19089;SDS011;9677;50.656;13.064;2022-12-07T03:49:32;12.63;;;11.53;;
19089;SDS011;9677;50.656;13.064;2022-12-07T03:52:11;12.00;;;11.00;;
19089;SDS011;9677;50.656;13.064;2022-12-07T03:54:47;11.90;;;10.90;;
19089;SDS011;9677;50.656;13.064;2022-12-07T03:57:22;11.90;;;10.90;;
19089;SDS011;9677;50.656;13.064;2022-12-07T03:59:53;12.33;;;11.33;;
19089;SDS011;9677;50.656;13.064;2022-12-07T04:02:25;13.13;;;11.90;;
19089;SDS011;9677;50.656;13.064;2022-12-07T04:04:55;11.33;;;10.43;;
19089;SDS011;9677;50.656;13.064;2022-12-07T04:07:24;12.13;;;11.13;;
19089;SDS011;9677;50.656;13.064;2022-12-07T04:09:53;12.30;;;11.20;;
19089;SDS011;9677;50.656;13.064;2022-12-07T04:12:22;11.80;;;10.80;;
19089;SDS011;9677;50.656;13.064;2022-12-07T04:14:51;11.53;;;10.53;;
19089;SDS011;9677;50.656;13.064;2022-12-07T04:17:19;12.43;;;11.43;;
19089;SDS011;9677;50.656;13.064;2022-12-07T04:19:49;11.90;;;10.90;;
19089;SDS011;9677;50.656;13.064;2022-12-07T04:22:18;11.80;;;10.80;;
19089;SDS011;9677;50.656;13.064;2022-12-07T04:24:47;11.27;;;10.27;;
19089;SDS011;9677;50.656;13.064;2022-12-07T04:27:15;11.93;;;10.93;;
19089;SDS011;9677;50.656;13.064;2022-12-07T04:29:44;11.60;;;10.60;;
19089;SDS011;9677;50.656;13.064;2022-12-07T04:32:12;12.87;;;11.80;;
19089;SDS011;9677;50.656;13.064;2022-12-07T04:34:41;11.70;;;10.70;;
19089;SDS011;9677;50.656;13.064;2022-12-07T04:37:11;12.00;;;11.00;;
19089;SDS011;9677;50.656;13.064;2022-12-07T04:39:39;11.67;;;10.67;;
19089;SDS011;9677;50.656;13.064;2022-12-07T04:42:10;11.23;;;10.30;;
19089;SDS011;9677;50.656;13.064;2022-12-07T04:44:39;11.60;;;10.60;;
19089;SDS011;9677;50.656;13.064;2022-12-07T04:47:08;12.30;;;11.30;;
19089;SDS011;9677;50.656;13.064;2022-12-07T04:49:36;12.30;;;11.00;;
19089;SDS011;9677;50.656;13.064;2022-12-07T04:52:05;12.17;;;11.17;;
19089;SDS011;9677;50.656;13.064;2022-12-07T04:54:35;12.17;;;11.17;;
19089;SDS011;9677;50.656;13.064;2022-12-07T04:57:04;12.97;;;11.87;;
19089;SDS011;9677;50.656;13.064;2022-12-07T04:59:32;11.90;;;10.90;;
19089;SDS011;9677;50.656;13.064;2022-12-07T05:02:04;11.73;;;10.63;;
19089;SDS011;9677;50.656;13.064;2022-12-07T05:04:33;12.33;;;11.33;;
19089;SDS011;9677;50.656;13.064;2022-12-07T05:07:01;12.13;;;11.13;;
19089;SDS011;9677;50.656;13.064;2022-12-07T05:09:30;12.27;;;11.27;;
19089;SDS011;9677;50.656;13.064;2022-12-07T05:12:00;12.30;;;11.30;;
19089;SDS011;9677;50.656;13.064;2022-12-07T05:14:28;11.70;;;10.70;;
19089;SDS011;9677;50.656;13.064;2022-12-07T05:16:57;12.00;;;11.00;;
19089;SDS011;9677;50.656;13.064;2022-12-07T05:19:25;12.13;;;11.13;;
19089;SDS011;9677;50.656;13.064;2022-12-07T05:21:54;12.77;;;11.77;;
19089;SDS011;9677;50.656;13.064;2022-12-07T05:24:23;11.90;;;10.90;;
19089;SDS011;9677;50.656;13.064;2022-12-07T05:26:52;12.17;;;11.17;;
19089;SDS011;9677;50.656;13.064;2022-12-07T05:29:22;11.90;;;10.90;;
19089;SDS011;9677;50.656;13.064;2022-12-07T05:31:50;11.77;;;10.77;;
19089;SDS011;9677;50.656;13.064;2022-12-07T05:34:19;12.13;;;11.10;;
19089;SDS011;9677;50.656;13.064;2022-12-07T05:36:48;12.70;;;11.60;;
19089;SDS011;9677;50.656;13.064;2022-12-07T05:39:16;11.63;;;10.73;;
19089;SDS011;9677;50.656;13.064;2022-12-07T05:41:45;12.03;;;11.03;;
19089;SDS011;9677;50.656;13.064;2022-12-07T05:44:32;12.10;;;11.03;;
19089;SDS011;9677;50.656;13.064;2022-12-07T05:47:01;11.60;;;10.60;;
19089;SDS011;9677;50.656;13.064;2022-12-07T05:49:30;11.37;;;10.47;;
19089;SDS011;9677;50.656;13.064;2022-12-07T05:51:58;12.10;;;11.10;;
19089;SDS011;9677;50.656;13.064;2022-12-07T05:54:27;11.50;;;10.50;;
19089;SDS011;9677;50.656;13.064;2022-12-07T05:56:56;12.53;;;11.43;;
19089;SDS011;9677;50.656;13.064;2022-12-07T05:59:25;11.60;;;10.60;;
19089;SDS011;9677;50.656;13.064;2022-12-07T06:01:56;12.67;;;11.60;;
19089;SDS011;9677;50.656;13.064;2022-12-07T06:04:27;11.83;;;10.83;;
19089;SDS011;9677;50.656;13.064;2022-12-07T06:06:58;11.50;;;10.60;;
19089;SDS011;9677;50.656;13.064;2022-12-07T06:09:27;12.13;;;11.13;;
19089;SDS011;9677;50.656;13.064;2022-12-07T06:11:56;11.50;;;10.50;;
19089;SDS011;9677;50.656;13.064;2022-12-07T06:14:43;12.47;;;11.27;;
19089;SDS011;9677;50.656;13.064;2022-12-07T06:17:13;11.87;;;10.87;;
19089;SDS011;9677;50.656;13.064;2022-12-07T06:19:42;12.60;;;11.50;;
19089;SDS011;9677;50.656;13.064;2022-12-07T06:22:11;11.57;;;10.57;;
19089;SDS011;9677;50.656;13.064;2022-12-07T06:24:40;11.80;;;10.70;;
19089;SDS011;9677;50.656;13.064;2022-12-07T06:27:09;12.40;;;11.30;;
19089;SDS011;9677;50.656;13.064;2022-12-07T06:29:38;11.47;;;10.53;;
19089;SDS011;9677;50.656;13.064;2022-12-07T06:32:06;11.60;;;10.60;;
19089;SDS011;9677;50.656;13.064;2022-12-07T06:34:37;11.80;;;10.80;;
19089;SDS011;9677;50.656;13.064;2022-12-07T06:37:06;12.50;;;11.30;;
19089;SDS011;9677;50.656;13.064;2022-12-07T06:39:35;12.53;;;11.43;;
19089;SDS011;9677;50.656;13.064;2022-12-07T06:42:03;12.20;;;11.10;;
19089;SDS011;9677;50.656;13.064;2022-12-07T06:44:32;12.50;;;11.50;;
19089;SDS011;9677;50.656;13.064;2022-12-07T06:47:01;11.60;;;10.60;;
19089;SDS011;9677;50.656;13.064;2022-12-07T06:49:52;11.97;;;11.03;;
19089;SDS011;9677;50.656;13.064;2022-12-07T06:52:20;11.73;;;10.73;;
19089;SDS011;9677;50.656;13.064;2022-12-07T06:54:49;12.00;;;11.00;;
19089;SDS011;9677;50.656;13.064;2022-12-07T06:57:18;13.20;;;12.10;;
19089;SDS011;9677;50.656;13.064;2022-12-07T06:59:47;11.90;;;10.90;;
19089;SDS011;9677;50.656;13.064;2022-12-07T07:02:15;11.63;;;10.70;;
19089;SDS011;9677;50.656;13.064;2022-12-07T07:04:44;12.47;;;11.47;;
19089;SDS011;9677;50.656;13.064;2022-12-07T07:07:14;12.70;;;11.70;;
19089;SDS011;9677;50.656;13.064;2022-12-07T07:09:43;12.03;;;11.03;;
19089;SDS011;9677;50.656;13.064;2022-12-07T07:12:12;12.00;;;11.00;;
19089;SDS011;9677;50.656;13.064;2022-12-07T07:14:41;11.73;;;10.73;;
19089;SDS011;9677;50.656;13.064;2022-12-07T07:17:09;12.10;;;11.10;;
19089;SDS011;9677;50.656;13.064;2022-12-07T07:19:38;12.07;;;11.03;;
19089;SDS011;9677;50.656;13.064;2022-12-07T07:22:07;12.30;;;11.20;;
19089;SDS011;9677;50.656;13.064;2022-12-07T07:24:37;11.80;;;10.80;;
19089;SDS011;9677;50.656;13.064;2022-12-07T07:27:05;12.20;;;11.03;;
19089;SDS011;9677;50.656;13.064;2022-12-07T07:29:35;12.23;;;11.20;;
19089;SDS011;9677;50.656;13.064;2022-12-07T07:32:05;12.20;;;11.10;;
19089;SDS011;9677;50.656;13.064;2022-12-07T07:34:34;11.87;;;10.77;;
19089;SDS011;9677;50.656;13.064;2022-12-07T07:37:03;12.60;;;11.60;;
19089;SDS011;9677;50.656;13.064;2022-12-07T07:39:31;11.50;;;10.50;;
19089;SDS011;9677;50.656;13.064;2022-12-07T07:42:01;12.20;;;11.17;;
19089;SDS011;9677;50.656;13.064;2022-12-07T07:44:32;12.30;;;11.30;;
19089;SDS011;9677;50.656;13.064;2022-12-07T07:47:01;12.50;;;11.47;;
19089;SDS011;9677;50.656;13.064;2022-12-07T07:49:30;11.80;;;10.80;;
19089;SDS011;9677;50.656;13.064;2022-12-07T07:51:58;12.10;;;11.00;;
19089;SDS011;9677;50.656;13.064;2022-12-07T07:54:27;12.10;;;11.10;;
19089;SDS011;9677;50.656;13.064;2022-12-07T07:56:55;11.77;;;10.77;;
19089;SDS011;9677;50.656;13.064;2022-12-07T07:59:26;12.53;;;11.43;;
19089;SDS011;9677;50.656;13.064;2022-12-07T08:01:54;12.90;;;11.70;;
19089;SDS011;9677;50.656;13.064;2022-12-07T08:04:23;12.40;;;11.20;;
19089;SDS011;9677;50.656;13.064;2022-12-07T08:06:52;12.77;;;11.67;;
19089;SDS011;9677;50.656;13.064;2022-12-07T08:09:21;12.30;;;11.20;;
19089;SDS011;9677;50.656;13.064;2022-12-07T08:11:49;13.27;;;12.17;;
19089;SDS011;9677;50.656;13.064;2022-12-07T08:14:18;12.87;;;11.77;;
19089;SDS011;9677;50.656;13.064;2022-12-07T08:16:48;12.63;;;11.53;;
19089;SDS011;9677;50.656;13.064;2022-12-07T08:19:16;12.83;;;11.73;;
19089;SDS011;9677;50.656;13.064;2022-12-07T08:21:45;14.27;;;13.07;;
19089;SDS011;9677;50.656;13.064;2022-12-07T08:24:14;12.80;;;11.70;;
19089;SDS011;9677;50.656;13.064;2022-12-07T08:26:43;12.80;;;11.60;;
19089;SDS011;9677;50.656;13.064;2022-12-07T08:29:11;13.10;;;12.00;;
19089;SDS011;9677;50.656;13.064;2022-12-07T08:31:40;12.50;;;11.40;;
19089;SDS011;9677;50.656;13.064;2022-12-07T08:34:11;12.80;;;11.70;;
19089;SDS011;9677;50.656;13.064;2022-12-07T08:36:40;12.07;;;11.00;;
19089;SDS011;9677;50.656;13.064;2022-12-07T08:39:09;12.30;;;11.20;;
19089;SDS011;9677;50.656;13.064;2022-12-07T08:41:57;13.80;;;12.60;;
19089;SDS011;9677;50.656;13.064;2022-12-07T08:44:26;13.07;;;11.97;;
19089;SDS011;9677;50.656;13.064;2022-12-07T08:46:56;13.57;;;12.27;;
19089;SDS011;9677;50.656;13.064;2022-12-07T08:49:43;13.50;;;12.20;;
19089;SDS011;9677;50.656;13.064;2022-12-07T08:52:41;12.30;;;11.10;;
19089;SDS011;9677;50.656;13.064;2022-12-07T08:55:11;13.23;;;12.03;;
19089;SDS011;9677;50.656;13.064;2022-12-07T08:57:39;12.10;;;11.10;;
19089;SDS011;9677;50.656;13.064;2022-12-07T09:00:09;13.20;;;12.00;;
19089;SDS011;9677;50.656;13.064;2022-12-07T09:02:39;12.40;;;11.30;;
19089;SDS011;9677;50.656;13.064;2022-12-07T09:05:10;12.67;;;11.53;;
19089;SDS011;9677;50.656;13.064;2022-12-07T09:07:42;12.60;;;11.50;;
19089;SDS011;9677;50.656;13.064;2022-12-07T09:10:14;13.20;;;12.00;;
19089;SDS011;9677;50.656;13.064;2022-12-07T09:12:43;12.30;;;11.20;;
19089;SDS011;9677;50.656;13.064;2022-12-07T09:15:11;12.50;;;11.40;;
19089;SDS011;9677;50.656;13.064;2022-12-07T09:17:40;12.07;;;10.97;;
19089;SDS011;9677;50.656;13.064;2022-12-07T09:20:10;12.73;;;11.63;;
19089;SDS011;9677;50.656;13.064;2022-12-07T09:22:40;12.33;;;11.13;;
19089;SDS011;9677;50.656;13.064;2022-12-07T09:25:08;12.67;;;11.47;;
19089;SDS011;9677;50.656;13.064;2022-12-07T09:27:37;12.03;;;10.90;;
19089;SDS011;9677;50.656;13.064;2022-12-07T09:30:06;12.73;;;11.53;;
19089;SDS011;9677;50.656;13.064;2022-12-07T09:32:35;12.50;;;11.30;;
19089;SDS011;9677;50.656;13.064;2022-12-07T09:35:04;12.53;;;11.43;;
19089;SDS011;9677;50.656;13.064;2022-12-07T09:37:35;12.90;;;11.80;;
19089;SDS011;9677;50.656;13.064;2022-12-07T09:40:04;11.87;;;10.70;;
19089;SDS011;9677;50.656;13.064;2022-12-07T09:42:34;13.00;;;11.70;;
19089;SDS011;9677;50.656;13.064;2022-12-07T09:45:06;12.60;;;11.40;;
19089;SDS011;9677;50.656;13.064;2022-12-07T09:47:42;12.77;;;11.67;;
19089;SDS011;9677;50.656;13.064;2022-12-07T09:50:12;12.60;;;11.33;;
19089;SDS011;9677;50.656;13.064;2022-12-07T09:52:45;12.13;;;11.03;;
19089;SDS011;9677;50.656;13.064;2022-12-07T09:55:16;12.17;;;11.07;;
19089;SDS011;9677;50.656;13.064;2022-12-07T09:57:52;12.63;;;11.53;;
19089;SDS011;9677;50.656;13.064;2022-12-07T10:00:22;12.00;;;11.00;;
19089;SDS011;9677;50.656;13.064;2022-12-07T10:02:53;11.80;;;10.70;;
19089;SDS011;9677;50.656;13.064;2022-12-07T10:05:26;12.13;;;10.93;;
19089;SDS011;9677;50.656;13.064;2022-12-07T10:08:01;12.53;;;11.37;;
19089;SDS011;9677;50.656;13.064;2022-12-07T10:10:31;12.40;;;11.27;;
19089;SDS011;9677;50.656;13.064;2022-12-07T10:13:05;12.27;;;11.17;;
19089;SDS011;9677;50.656;13.064;2022-12-07T10:15:41;12.00;;;10.90;;
19089;SDS011;9677;50.656;13.064;2022-12-07T10:18:19;12.10;;;10.87;;
19089;SDS011;9677;50.656;13.064;2022-12-07T10:21:05;11.90;;;10.90;;
19089;SDS011;9677;50.656;13.064;2022-12-07T10:23:42;12.20;;;11.20;;
19089;SDS011;9677;50.656;13.064;2022-12-07T10:26:29;12.70;;;11.53;;
19089;SDS011;9677;50.656;13.064;2022-12-07T10:29:02;11.90;;;10.77;;
19089;SDS011;9677;50.656;13.064;2022-12-07T10:31:48;12.00;;;10.90;;
19089;SDS011;9677;50.656;13.064;2022-12-07T10:34:23;13.20;;;12.00;;
19089;SDS011;9677;50.656;13.064;2022-12-07T10:37:06;12.27;;;11.27;;
19089;SDS011;9677;50.656;13.064;2022-12-07T10:39:45;11.97;;;10.97;;
19089;SDS011;9677;50.656;13.064;2022-12-07T10:42:17;12.13;;;11.13;;
19089;SDS011;9677;50.656;13.064;2022-12-07T10:44:48;12.30;;;11.20;;
19089;SDS011;9677;50.656;13.064;2022-12-07T10:47:24;12.10;;;11.10;;
19089;SDS011;9677;50.656;13.064;2022-12-07T10:50:14;12.47;;;11.27;;
19089;SDS011;9677;50.656;13.064;2022-12-07T10:59:46;12.10;;;11.00;;
19089;SDS011;9677;50.656;13.064;2022-12-07T11:02:37;11.60;;;10.60;;
19089;SDS011;9677;50.656;13.064;2022-12-07T11:05:48;12.10;;;11.00;;
19089;SDS011;9677;50.656;13.064;2022-12-07T11:08:28;11.37;;;10.37;;
19089;SDS011;9677;50.656;13.064;2022-12-07T11:11:12;11.97;;;10.97;;
19089;SDS011;9677;50.656;13.064;2022-12-07T11:13:48;11.70;;;10.70;;
19089;SDS011;9677;50.656;13.064;2022-12-07T11:16:29;12.73;;;11.63;;
19089;SDS011;9677;50.656;13.064;2022-12-07T11:19:21;12.77;;;11.67;;
19089;SDS011;9677;50.656;13.064;2022-12-07T11:22:03;12.40;;;11.30;;
19089;SDS011;9677;50.656;13.064;2022-12-07T11:24:40;11.73;;;10.73;;
19089;SDS011;9677;50.656;13.064;2022-12-07T11:27:20;12.20;;;11.07;;
19089;SDS011;9677;50.656;13.064;2022-12-07T11:30:02;11.90;;;10.90;;
19089;SDS011;9677;50.656;13.064;2022-12-07T11:32:45;11.97;;;10.77;;
19089;SDS011;9677;50.656;13.064;2022-12-07T11:35:33;11.87;;;10.87;;
19089;SDS011;9677;50.656;13.064;2022-12-07T11:38:14;11.90;;;10.90;;
19089;SDS011;9677;50.656;13.064;2022-12-07T11:40:53;12.03;;;10.90;;
19089;SDS011;9677;50.656;13.064;2022-12-07T11:43:56;12.60;;;11.50;;
19089;SDS011;9677;50.656;13.064;2022-12-07T11:46:41;11.93;;;10.93;;
19089;SDS011;9677;50.656;13.064;2022-12-07T11:49:16;12.23;;;11.23;;
19089;SDS011;9677;50.656;13.064;2022-12-07T11:51:55;12.27;;;11.17;;
19089;SDS011;9677;50.656;13.064;2022-12-07T11:54:29;12.60;;;11.50;;
19089;SDS011;9677;50.656;13.064;2022-12-07T11:57:04;11.63;;;10.53;;
19089;SDS011;9677;50.656;13.064;2022-12-07T11:59:46;11.27;;;10.27;;
19089;SDS011;9677;50.656;13.064;2022-12-07T12:02:20;11.30;;;10.30;;
19089;SDS011;9677;50.656;13.064;2022-12-07T12:04:55;11.23;;;10.23;;
19089;SDS011;9677;50.656;13.064;2022-12-07T12:07:31;11.67;;;10.67;;
19089;SDS011;9677;50.656;13.064;2022-12-07T12:14:42;11.90;;;10.80;;
19089;SDS011;9677;50.656;13.064;2022-12-07T12:21:56;11.10;;;10.10;;
19089;SDS011;9677;50.656;13.064;2022-12-07T12:29:15;11.83;;;10.87;;
19089;SDS011;9677;50.656;13.064;2022-12-07T12:36:19;11.67;;;10.47;;
19089;SDS011;9677;50.656;13.064;2022-12-07T12:43:44;11.83;;;10.83;;
19089;SDS011;9677;50.656;13.064;2022-12-07T12:50:21;11.50;;;10.50;;
19089;SDS011;9677;50.656;13.064;2022-12-07T12:57:29;10.90;;;10.00;;
19089;SDS011;9677;50.656;13.064;2022-12-07T13:04:47;11.90;;;10.80;;
19089;SDS011;9677;50.656;13.064;2022-12-07T13:07:52;11.23;;;10.23;;
19089;SDS011;9677;50.656;13.064;2022-12-07T13:10:40;11.37;;;10.47;;
19089;SDS011;9677;50.656;13.064;2022-12-07T13:13:33;11.10;;;10.10;;
19089;SDS011;9677;50.656;13.064;2022-12-07T13:22:44;10.83;;;9.93;;
19089;SDS011;9677;50.656;13.064;2022-12-07T13:25:20;14.00;;;10.23;;
19089;SDS011;9677;50.656;13.064;2022-12-07T13:28:00;11.07;;;10.17;;
19089;SDS011;9677;50.656;13.064;2022-12-07T13:30:40;11.67;;;10.67;;
19089;SDS011;9677;50.656;13.064;2022-12-07T13:33:15;11.33;;;10.43;;
19089;SDS011;9677;50.656;13.064;2022-12-07T13:35:48;11.93;;;10.83;;
19089;SDS011;9677;50.656;13.064;2022-12-07T13:38:24;11.57;;;10.60;;
19089;SDS011;9677;50.656;13.064;2022-12-07T13:41:00;11.20;;;10.17;;
19089;SDS011;9677;50.656;13.064;2022-12-07T13:43:44;11.50;;;10.53;;
19089;SDS011;9677;50.656;13.064;2022-12-07T13:46:17;11.63;;;10.63;;
19089;SDS011;9677;50.656;13.064;2022-12-07T13:48:54;10.50;;;9.60;;
19089;SDS011;9677;50.656;13.064;2022-12-07T13:51:25;10.80;;;9.90;;
19089;SDS011;9677;50.656;13.064;2022-12-07T13:53:59;10.80;;;9.90;;
19089;SDS011;9677;50.656;13.064;2022-12-07T13:56:34;10.77;;;9.87;;
19089;SDS011;9677;50.656;13.064;2022-12-07T13:59:07;10.50;;;9.60;;
19089;SDS011;9677;50.656;13.064;2022-12-07T14:01:42;11.60;;;10.60;;
19089;SDS011;9677;50.656;13.064;2022-12-07T14:09:55;11.23;;;10.23;;
19089;SDS011;9677;50.656;13.064;2022-12-07T14:12:27;11.47;;;10.43;;
19089;SDS011;9677;50.656;13.064;2022-12-07T14:14:57;10.90;;;10.00;;
19089;SDS011;9677;50.656;13.064;2022-12-07T14:17:28;11.00;;;10.10;;
19089;SDS011;9677;50.656;13.064;2022-12-07T14:19:57;11.03;;;10.13;;
19089;SDS011;9677;50.656;13.064;2022-12-07T14:22:29;12.03;;;10.93;;
19089;SDS011;9677;50.656;13.064;2022-12-07T14:25:13;10.80;;;9.80;;
19089;SDS011;9677;50.656;13.064;2022-12-07T14:27:50;11.20;;;10.20;;
19089;SDS011;9677;50.656;13.064;2022-12-07T14:30:23;10.87;;;9.97;;
19089;SDS011;9677;50.656;13.064;2022-12-07T14:32:55;11.10;;;10.20;;
19089;SDS011;9677;50.656;13.064;2022-12-07T14:35:27;10.90;;;10.00;;
19089;SDS011;9677;50.656;13.064;2022-12-07T14:37:57;11.33;;;10.33;;
19089;SDS011;9677;50.656;13.064;2022-12-07T14:40:27;11.80;;;10.80;;
19089;SDS011;9677;50.656;13.064;2022-12-07T14:42:59;11.03;;;10.03;;
19089;SDS011;9677;50.656;13.064;2022-12-07T14:45:31;11.70;;;10.70;;
19089;SDS011;9677;50.656;13.064;2022-12-07T14:47:59;10.90;;;10.00;;
19089;SDS011;9677;50.656;13.064;2022-12-07T14:50:49;10.37;;;9.50;;
19089;SDS011;9677;50.656;13.064;2022-12-07T14:53:42;11.00;;;10.00;;
19089;SDS011;9677;50.656;13.064;2022-12-07T14:56:22;12.50;;;10.87;;
19089;SDS011;9677;50.656;13.064;2022-12-07T14:58:51;11.13;;;10.00;;
19089;SDS011;9677;50.656;13.064;2022-12-07T15:01:19;11.23;;;10.27;;
19089;SDS011;9677;50.656;13.064;2022-12-07T15:03:48;11.17;;;10.07;;
19089;SDS011;9677;50.656;13.064;2022-12-07T15:06:17;11.40;;;10.43;;
19089;SDS011;9677;50.656;13.064;2022-12-07T15:08:47;10.70;;;9.80;;
19089;SDS011;9677;50.656;13.064;2022-12-07T15:11:16;10.63;;;9.73;;
19089;SDS011;9677;50.656;13.064;2022-12-07T15:13:45;11.10;;;10.20;;
19089;SDS011;9677;50.656;13.064;2022-12-07T15:16:31;11.10;;;10.20;;
19089;SDS011;9677;50.656;13.064;2022-12-07T15:19:20;10.70;;;9.80;;
19089;SDS011;9677;50.656;13.064;2022-12-07T15:21:55;10.97;;;10.07;;
19089;SDS011;9677;50.656;13.064;2022-12-07T15:24:27;10.60;;;9.70;;
19089;SDS011;9677;50.656;13.064;2022-12-07T15:26:57;11.27;;;10.37;;
19089;SDS011;9677;50.656;13.064;2022-12-07T15:29:25;11.30;;;10.30;;
19089;SDS011;9677;50.656;13.064;2022-12-07T15:31:54;11.23;;;10.13;;
19089;SDS011;9677;50.656;13.064;2022-12-07T15:34:24;10.83;;;9.80;;
19089;SDS011;9677;50.656;13.064;2022-12-07T15:37:03;11.40;;;10.20;;
19089;SDS011;9677;50.656;13.064;2022-12-07T15:39:33;11.27;;;10.20;;
19089;SDS011;9677;50.656;13.064;2022-12-07T15:42:03;10.60;;;9.70;;
19089;SDS011;9677;50.656;13.064;2022-12-07T15:44:32;10.83;;;9.93;;
19089;SDS011;9677;50.656;13.064;2022-12-07T15:47:18;12.10;;;11.00;;
19089;SDS011;9677;50.656;13.064;2022-12-07T15:49:47;11.00;;;10.10;;
19089;SDS011;9677;50.656;13.064;2022-12-07T15:52:16;11.37;;;10.47;;